createdAt,value
2019-03-06T19:33:23.552Z,97932.65
2019-03-06T19:35:58.641Z,97953.81
2019-03-06T19:38:32.667Z,97935.22
2019-03-06T19:41:06.663Z,97932.56
2019-03-06T19:43:40.999Z,97940.02
2019-03-06T19:46:15.652Z,97931.04
2019-03-06T19:48:49.416Z,97921.16
2019-03-06T19:51:22.634Z,97923.84
2019-03-06T19:53:56.665Z,97916.55
2019-03-06T19:56:31.422Z,97916.04
2019-03-06T19:59:05.032Z,97906.61
2019-03-06T20:01:38.527Z,97900.72
2019-03-06T20:04:12.731Z,97910.41
2019-03-06T20:06:46.879Z,97902.31
2019-03-06T20:09:27.464Z,97900.59
2019-03-06T20:12:00.771Z,97893.38
2019-03-06T20:14:34.338Z,97896.26
2019-03-06T20:17:07.815Z,97881.84
2019-03-06T20:19:41.294Z,97893.95
2019-03-06T20:22:16.422Z,97894.70
2019-03-06T20:24:49.211Z,97888.67
2019-03-06T20:27:23.010Z,97887.09
2019-03-06T20:29:56.975Z,97902.53
2019-03-06T20:32:30.537Z,97889.14
2019-03-06T20:35:04.021Z,97885.16
2019-03-06T20:37:37.660Z,97867.52
2019-03-06T20:40:09.947Z,97878.21
2019-03-06T20:42:43.202Z,97868.02
2019-03-06T20:45:16.991Z,97877.91
2019-03-06T20:47:50.105Z,97857.54
2019-03-06T20:50:23.948Z,97856.95
2019-03-06T20:52:56.728Z,97838.48
2019-03-06T20:55:29.874Z,97845.02
2019-03-06T20:58:04.039Z,97850.23
2019-03-06T21:00:37.167Z,97839.65
2019-03-06T21:03:10.194Z,97850.89
2019-03-06T21:05:43.778Z,97846.64
2019-03-06T21:08:17.503Z,97852.72
2019-03-06T21:10:51.414Z,97840.42
2019-03-06T21:13:24.496Z,97832.98
2019-03-06T21:15:57.179Z,97841.12
2019-03-06T21:18:30.664Z,97836.81
2019-03-06T21:21:04.430Z,97843.77
2019-03-06T21:23:38.253Z,97841.40
2019-03-06T21:26:12.022Z,97838.63
2019-03-06T21:28:45.694Z,97845.18
2019-03-06T21:31:19.690Z,97843.55
2019-03-06T21:33:53.767Z,97850.41
2019-03-06T21:36:27.553Z,97843.90
2019-03-06T21:39:03.883Z,97842.70
2019-03-06T21:41:39.697Z,97859.86
2019-03-06T21:44:13.248Z,97848.38
2019-03-06T21:46:47.145Z,97854.88
2019-03-06T21:49:20.975Z,97841.70
2019-03-06T21:51:54.081Z,97849.47
2019-03-06T21:54:27.332Z,97844.72
2019-03-06T21:57:01.082Z,97840.53
2019-03-06T21:59:35.474Z,97832.80
2019-03-06T22:02:09.078Z,97843.48
2019-03-06T22:04:44.001Z,97837.30
2019-03-06T22:07:17.646Z,97836.87
2019-03-06T22:09:50.769Z,97838.75
2019-03-06T22:12:23.763Z,97835.36
2019-03-06T22:14:56.029Z,97827.45
2019-03-06T22:17:28.654Z,97824.67
2019-03-06T22:20:01.619Z,97833.12
2019-03-06T22:22:34.659Z,97836.39
2019-03-06T22:25:08.491Z,97821.24
2019-03-06T22:27:42.320Z,97817.88
2019-03-06T22:30:16.937Z,97816.35
2019-03-06T22:32:50.642Z,97817.80
2019-03-06T22:35:24.163Z,97812.56
2019-03-06T22:37:57.593Z,97820.07
2019-03-06T22:40:30.662Z,97817.52
2019-03-06T22:43:04.563Z,97812.20
2019-03-06T22:45:38.058Z,97812.72
2019-03-06T22:48:10.724Z,97809.84
2019-03-06T22:50:44.067Z,97804.89
2019-03-06T22:53:17.108Z,97795.19
2019-03-06T22:55:50.606Z,97799.14
2019-03-06T22:58:23.902Z,97792.28
2019-03-06T23:01:01.604Z,97788.98
2019-03-06T23:03:36.233Z,97780.95
2019-03-06T23:06:08.414Z,97785.91
2019-03-06T23:08:41.924Z,97781.70
2019-03-06T23:11:15.732Z,97780.47
2019-03-06T23:13:49.293Z,97769.73
2019-03-06T23:16:21.610Z,97774.09
2019-03-06T23:18:54.597Z,97767.97
2019-03-06T23:21:28.261Z,97757.89
2019-03-06T23:24:01.338Z,97760.09
2019-03-06T23:26:42.503Z,97766.61
2019-03-06T23:29:10.157Z,97760.09
2019-03-06T23:31:43.845Z,97745.00
2019-03-06T23:34:16.530Z,97737.76
2019-03-06T23:36:49.048Z,97745.90
2019-03-06T23:39:22.932Z,97741.22
2019-03-06T23:41:56.532Z,97727.63
2019-03-06T23:44:29.551Z,97733.51
2019-03-06T23:47:03.048Z,97725.98
2019-03-06T23:49:37.046Z,97727.06
2019-03-06T23:52:15.912Z,97720.80
2019-03-06T23:54:48.977Z,97705.34
2019-03-06T23:57:22.474Z,97708.62
2019-03-06T23:59:55.979Z,97700.25
